地図

経路データ

SID SEASON NUMBER BASIN SUBBASIN NAME ISO_TIME NATURE LAT LON WMO_WIND WMO_PRES WMO_AGENCY TRACK_TYPE DIST2LAND LANDFALL IFLAG USA_AGENCY USA_ATCF_ID USA_LAT USA_LON USA_RECORD USA_STATUS USA_WIND USA_PRES USA_SSHS USA_R34_NE USA_R34_SE USA_R34_SW USA_R34_NW USA_R50_NE USA_R50_SE USA_R50_SW USA_R50_NW USA_R64_NE USA_R64_SE USA_R64_SW USA_R64_NW USA_POCI USA_ROCI USA_RMW USA_EYE TOKYO_LAT TOKYO_LON TOKYO_GRADE TOKYO_WIND TOKYO_PRES TOKYO_R50_DIR TOKYO_R50_LONG TOKYO_R50_SHORT TOKYO_R30_DIR TOKYO_R30_LONG TOKYO_R30_SHORT TOKYO_LAND CMA_LAT CMA_LON CMA_CAT CMA_WIND CMA_PRES HKO_LAT HKO_LON HKO_CAT HKO_WIND HKO_PRES NEWDELHI_LAT NEWDELHI_LON NEWDELHI_GRADE NEWDELHI_WIND NEWDELHI_PRES NEWDELHI_CI NEWDELHI_DP NEWDELHI_POCI REUNION_LAT REUNION_LON REUNION_TYPE REUNION_WIND REUNION_PRES REUNION_TNUM REUNION_CI REUNION_RMW REUNION_R34_NE REUNION_R34_SE REUNION_R34_SW REUNION_R34_NW REUNION_R50_NE REUNION_R50_SE REUNION_R50_SW REUNION_R50_NW REUNION_R64_NE REUNION_R64_SE REUNION_R64_SW REUNION_R64_NW BOM_LAT BOM_LON BOM_TYPE BOM_WIND BOM_PRES BOM_TNUM BOM_CI BOM_RMW BOM_R34_NE BOM_R34_SE BOM_R34_SW BOM_R34_NW BOM_R50_NE BOM_R50_SE BOM_R50_SW BOM_R50_NW BOM_R64_NE BOM_R64_SE BOM_R64_SW BOM_R64_NW BOM_ROCI BOM_POCI BOM_EYE BOM_POS_METHOD BOM_PRES_METHOD NADI_LAT NADI_LON NADI_CAT NADI_WIND NADI_PRES WELLINGTON_LAT WELLINGTON_LON WELLINGTON_WIND WELLINGTON_PRES DS824_LAT DS824_LON DS824_STAGE DS824_WIND DS824_PRES TD9636_LAT TD9636_LON TD9636_STAGE TD9636_WIND TD9636_PRES TD9635_LAT TD9635_LON TD9635_WIND TD9635_PRES TD9635_ROCI NEUMANN_LAT NEUMANN_LON NEUMANN_CLASS NEUMANN_WIND NEUMANN_PRES MLC_LAT MLC_LON MLC_CLASS MLC_WIND MLC_PRES USA_GUST BOM_GUST BOM_GUST_PER REUNION_GUST REUNION_GUST_PER USA_SEAHGT USA_SEARAD_NE USA_SEARAD_SE USA_SEARAD_SW USA_SEARAD_NW STORM_SPEED STORM_DIR
2000255N31289 2000 81 NA NA FLORENCE 2000-09-10 18:00:00 SS 30.9000 -70.9000 30 1007 hurdat_atl main 672 658 O_____________ hurdat_atl AL102000 30.9000 -70.9000 SD 30 1007 -2 3 251
2000255N31289 2000 81 NA NA FLORENCE 2000-09-10 21:00:00 SS 30.8450 -71.0876 main 665 651 P_____________ AL102000 30.8450 -71.0876 SD 30 1007 -2 4 254
2000255N31289 2000 81 NA NA FLORENCE 2000-09-11 00:00:00 SS 30.8000 -71.3000 30 1007 hurdat_atl main 651 637 O_____________ hurdat_atl AL102000 30.8000 -71.3000 SD 30 1007 -2 4 259
2000255N31289 2000 81 NA NA FLORENCE 2000-09-11 03:00:00 SS 30.7650 -71.5499 main 637 625 P_____________ AL102000 30.7650 -71.5499 SD 30 1006 -2 4 257
2000255N31289 2000 81 NA NA FLORENCE 2000-09-11 06:00:00 TS 30.7000 -71.8000 30 1006 hurdat_atl main 625 619 O_____________ hurdat_atl AL102000 30.7000 -71.8000 TD 30 1006 -1 4 243
2000255N31289 2000 81 NA NA FLORENCE 2000-09-11 09:00:00 TS 30.5649 -72.0075 main 621 621 P_____________ AL102000 30.5649 -72.0075 TD 37 1004 0 5 229
2000255N31289 2000 81 NA NA FLORENCE 2000-09-11 12:00:00 TS 30.4000 -72.2000 45 1002 hurdat_atl main 625 619 O_____________ hurdat_atl AL102000 30.4000 -72.2000 TS 45 1002 0 5 227
2000255N31289 2000 81 NA NA FLORENCE 2000-09-11 15:00:00 TS 30.2275 -72.4226 main 631 626 P_____________ AL102000 30.2275 -72.4226 TS 55 1000 0 5 229
2000255N31289 2000 81 NA NA FLORENCE 2000-09-11 18:00:00 TS 30.1000 -72.6000 65 998 hurdat_atl main 629 624 O_____________ hurdat_atl AL102000 30.1000 -72.6000 HU 65 998 1 3 234
2000255N31289 2000 81 NA NA FLORENCE 2000-09-11 21:00:00 TS 30.0699 -72.6724 main 624 624 P_____________ AL102000 30.0699 -72.6724 HU 65 995 1 1 270
2000255N31289 2000 81 NA NA FLORENCE 2000-09-12 00:00:00 TS 30.1000 -72.7000 65 992 hurdat_atl main 624 624 O_____________ hurdat_atl AL102000 30.1000 -72.7000 HU 65 992 1 1 325
2000255N31289 2000 81 NA NA FLORENCE 2000-09-12 03:00:00 TS 30.1425 -72.7350 main 624 609 P_____________ AL102000 30.1425 -72.7350 HU 62 992 0 1 320
2000255N31289 2000 81 NA NA FLORENCE 2000-09-12 06:00:00 TS 30.2000 -72.8000 60 993 hurdat_atl main 609 604 O_____________ hurdat_atl AL102000 30.2000 -72.8000 TS 60 993 0 2 297
2000255N31289 2000 81 NA NA FLORENCE 2000-09-12 09:00:00 TS 30.2350 -72.9425 main 604 584 P_____________ AL102000 30.2350 -72.9425 TS 60 992 0 3 291
2000255N31289 2000 81 NA NA FLORENCE 2000-09-12 12:00:00 TS 30.3000 -73.1000 60 991 hurdat_atl main 584 570 O_____________ hurdat_atl AL102000 30.3000 -73.1000 TS 60 991 0 3 314
2000255N31289 2000 81 NA NA FLORENCE 2000-09-12 15:00:00 TS 30.4424 -73.1925 main 570 546 P_____________ AL102000 30.4424 -73.1925 TS 62 989 0 3 330
2000255N31289 2000 81 NA NA FLORENCE 2000-09-12 18:00:00 TS 30.6000 -73.3000 65 987 hurdat_atl main 546 526 O_____________ hurdat_atl AL102000 30.6000 -73.3000 HU 65 987 1 4 318
2000255N31289 2000 81 NA NA FLORENCE 2000-09-12 21:00:00 TS 30.7301 -73.4924 main 526 507 P_____________ AL102000 30.7301 -73.4924 HU 65 986 1 4 300
2000255N31289 2000 81 NA NA FLORENCE 2000-09-13 00:00:00 TS 30.8000 -73.7000 65 986 hurdat_atl main 507 497 O_____________ hurdat_atl AL102000 30.8000 -73.7000 HU 65 986 1 3 276
2000255N31289 2000 81 NA NA FLORENCE 2000-09-13 03:00:00 TS 30.7650 -73.8952 main 497 497 P_____________ AL102000 30.7650 -73.8952 HU 65 986 1 3 249
2000255N31289 2000 81 NA NA FLORENCE 2000-09-13 06:00:00 TS 30.7000 -74.0000 65 986 hurdat_atl main 503 503 O_____________ hurdat_atl AL102000 30.7000 -74.0000 HU 65 986 1 1 213
2000255N31289 2000 81 NA NA FLORENCE 2000-09-13 09:00:00 TS 30.7075 -73.9300 main 507 507 P_____________ AL102000 30.7075 -73.9300 HU 62 986 0 2 90
2000255N31289 2000 81 NA NA FLORENCE 2000-09-13 12:00:00 TS 30.7000 -73.8000 60 987 hurdat_atl main 512 512 O_____________ hurdat_atl AL102000 30.7000 -73.8000 TS 60 987 0 2 117
2000255N31289 2000 81 NA NA FLORENCE 2000-09-13 15:00:00 TS 30.6225 -73.7425 main 526 526 P_____________ AL102000 30.6225 -73.7425 TS 57 988 0 2 155
2000255N31289 2000 81 NA NA FLORENCE 2000-09-13 18:00:00 TS 30.5000 -73.7000 55 989 hurdat_atl main 536 536 O_____________ hurdat_atl AL102000 30.5000 -73.7000 TS 55 989 0 3 159
2000255N31289 2000 81 NA NA FLORENCE 2000-09-13 21:00:00 TS 30.3800 -73.6425 main 550 550 P_____________ AL102000 30.3800 -73.6425 TS 52 990 0 3 164
2000255N31289 2000 81 NA NA FLORENCE 2000-09-14 00:00:00 TS 30.2000 -73.6000 50 991 hurdat_atl main 570 570 O_____________ hurdat_atl AL102000 30.2000 -73.6000 TS 50 991 0 5 174
2000255N31289 2000 81 NA NA FLORENCE 2000-09-14 03:00:00 TS 29.8850 -73.6076 main 600 600 P_____________ AL102000 29.8850 -73.6076 TS 47 992 0 6 179
2000255N31289 2000 81 NA NA FLORENCE 2000-09-14 06:00:00 TS 29.6000 -73.6000 45 993 hurdat_atl main 630 630 O_____________ hurdat_atl AL102000 29.6000 -73.6000 TS 45 993 0 4 170
2000255N31289 2000 81 NA NA FLORENCE 2000-09-14 09:00:00 TS 29.5200 -73.5226 main 644 644 P_____________ AL102000 29.5200 -73.5226 TS 45 993 0 2 120
2000255N31289 2000 81 NA NA FLORENCE 2000-09-14 12:00:00 TS 29.5000 -73.4000 45 994 hurdat_atl main 649 649 O_____________ hurdat_atl AL102000 29.5000 -73.4000 TS 45 994 0 3 118
2000255N31289 2000 81 NA NA FLORENCE 2000-09-14 15:00:00 TS 29.4000 -73.2574 main 663 663 P_____________ AL102000 29.4000 -73.2574 TS 45 994 0 3 127
2000255N31289 2000 81 NA NA FLORENCE 2000-09-14 18:00:00 TS 29.3000 -73.1000 45 995 hurdat_atl main 673 673 O_____________ hurdat_atl AL102000 29.3000 -73.1000 TS 45 995 0 3 121
2000255N31289 2000 81 NA NA FLORENCE 2000-09-14 21:00:00 TS 29.2425 -72.9576 main 673 673 P_____________ AL102000 29.2425 -72.9576 TS 45 995 0 3 111
2000255N31289 2000 81 NA NA FLORENCE 2000-09-15 00:00:00 TS 29.2000 -72.8000 45 995 hurdat_atl main 688 688 O_____________ hurdat_atl AL102000 29.2000 -72.8000 TS 45 995 0 3 121
2000255N31289 2000 81 NA NA FLORENCE 2000-09-15 03:00:00 TS 29.0895 -72.6667 main 688 688 P_____________ AL102000 29.0895 -72.6667 TS 45 995 0 4 106
2000255N31289 2000 81 NA NA FLORENCE 2000-09-15 06:00:00 TS 29.1000 -72.4000 45 996 hurdat_atl main 711 711 O_____________ hurdat_atl AL102000 29.1000 -72.4000 TS 45 996 0 8 64
2000255N31289 2000 81 NA NA FLORENCE 2000-09-15 09:00:00 TS 29.4200 -71.8836 main 732 725 P_____________ AL102000 29.4200 -71.8836 TS 47 996 0 13 56
2000255N31289 2000 81 NA NA FLORENCE 2000-09-15 12:00:00 TS 29.8000 -71.2000 50 997 hurdat_atl main 738 738 O_____________ hurdat_atl AL102000 29.8000 -71.2000 TS 50 997 0 13 66
2000255N31289 2000 81 NA NA FLORENCE 2000-09-15 15:00:00 TS 29.9489 -70.5231 main 776 768 P_____________ AL102000 29.9489 -70.5231 TS 55 997 0 13 77
2000255N31289 2000 81 NA NA FLORENCE 2000-09-15 18:00:00 TS 30.1000 -69.7000 60 997 hurdat_atl main 817 817 O_____________ hurdat_atl AL102000 30.1000 -69.7000 TS 60 997 0 17 77
2000255N31289 2000 81 NA NA FLORENCE 2000-09-15 21:00:00 TS 30.3391 -68.5915 main 883 883 P_____________ AL102000 30.3391 -68.5915 TS 62 995 0 20 70
2000255N31289 2000 81 NA NA FLORENCE 2000-09-16 00:00:00 TS 30.8000 -67.5000 65 994 hurdat_atl main 927 925 O_____________ hurdat_atl AL102000 30.8000 -67.5000 HU 65 994 1 20 51
2000255N31289 2000 81 NA NA FLORENCE 2000-09-16 03:00:00 TS 31.6228 -66.7760 main 929 924 P_____________ AL102000 31.6228 -66.7760 HU 65 991 1 22 34
2000255N31289 2000 81 NA NA FLORENCE 2000-09-16 06:00:00 TS 32.6000 -66.1000 65 988 hurdat_atl main 933 928 O_____________ hurdat_atl AL102000 32.6000 -66.1000 HU 65 988 1 23 36
2000255N31289 2000 81 NA NA FLORENCE 2000-09-16 09:00:00 TS 33.4492 -65.2225 main 977 962 P_____________ AL102000 33.4492 -65.2225 HU 65 987 1 23 43
2000255N31289 2000 81 NA NA FLORENCE 2000-09-16 12:00:00 TS 34.3000 -64.2000 65 987 hurdat_atl main 966 942 O_____________ hurdat_atl AL102000 34.3000 -64.2000 HU 65 987 1 25 46
2000255N31289 2000 81 NA NA FLORENCE 2000-09-16 15:00:00 TS 35.1926 -63.0290 main 944 872 P_____________ AL102000 35.1926 -63.0290 HU 67 986 1 27 47
2000255N31289 2000 81 NA NA FLORENCE 2000-09-16 18:00:00 TS 36.1000 -61.8000 70 985 hurdat_atl main 875 827 O_____________ hurdat_atl AL102000 36.1000 -61.8000 HU 70 985 1 26 48
2000255N31289 2000 81 NA NA FLORENCE 2000-09-16 21:00:00 TS 36.9691 -60.6238 main 825 794 P_____________ AL102000 36.9691 -60.6238 HU 65 987 1 26 46
2000255N31289 2000 81 NA NA FLORENCE 2000-09-17 00:00:00 TS 37.9000 -59.5000 60 990 hurdat_atl main 790 732 O_____________ hurdat_atl AL102000 37.9000 -59.5000 TS 60 990 0 26 41
2000255N31289 2000 81 NA NA FLORENCE 2000-09-17 03:00:00 TS 38.9531 -58.4530 main 721 648 P_____________ AL102000 38.9531 -58.4530 TS 57 992 0 27 37
2000255N31289 2000 81 NA NA FLORENCE 2000-09-17 06:00:00 TS 40.1000 -57.4000 55 995 hurdat_atl main 642 589 O_____________ hurdat_atl AL102000 40.1000 -57.4000 TS 55 995 0 29 37
2000255N31289 2000 81 NA NA FLORENCE 2000-09-17 09:00:00 TS 41.2405 -56.1894 main 594 481 P_____________ AL102000 41.2405 -56.1894 TS 52 997 0 30 37
2000255N31289 2000 81 NA NA FLORENCE 2000-09-17 12:00:00 TS 42.5000 -55.0000 50 1000 hurdat_atl main 468 301 O_____________ hurdat_atl AL102000 42.5000 -55.0000 TS 50 1000 0 32 31
2000255N31289 2000 81 NA NA FLORENCE 2000-09-17 15:00:00 TS 43.9455 -53.9619 main 301 133 P_____________ AL102000 43.9455 -53.9619 TS 50 1001 0 33 26
2000255N31289 2000 81 NA NA FLORENCE 2000-09-17 18:00:00 TS 45.5000 -53.0000 50 1002 hurdat_atl main 123 O_____________ hurdat_atl AL102000 45.5000 -53.0000 TS 50 1002 0 34 23

IBTrACS Databaseについて

本データベースは、米国NOAAが公開する1842年以降の世界の熱帯低気圧のベストトラックデータアーカイブInternational Best Track Archive for Climate Stewardship (IBTrACS)を、ウェブで閲覧しやすい形式に変換したものです。

最終更新日:2021-12-03